Skip Navigation LinksHome page > Weather > Current weather Skip Navigation Links

Current Weather

Alert, Nunavut

For information only: do not use for flight planning or navigation.
Latest weather
Observation time Tuesday, July 29, 2014 4:00 PM EDT
Local time Tuesday, July 29, 2014 4:52 PM EDT
Flight conditions Marginal Visual Meteorological Conditions
Winds
Wind direction East (90°)
Wind speed 7 mph
Visibility 4 mi.
Present weather light snow, mist
Sky condition
Ceiling 4,300 ft. overcast
Cloud layer few clouds 200 ft.
Cloud layer scattered clouds 2,100 ft.
Cloud layer overcast 4,300 ft.
Temperature 34°F
Dewpoint 32°F
Altimeter 30.19 in.Hg
Derived measurements
Relative humidity 93%
Wind chill 28°F
Density altitude -1925 ft.
Sea-level pressure 30.20 in.Hg
Remarks
Visibility south.
METAR CYLT 292000Z 09006KT 4SM -SN BR FEW002 SCT021 OVC043 01/00 A3019 RMK ST2SC2SC2 VIS LWR S QUAD SLP226

Settings

Location code

InnerDrive.Weather 4.0.5294.0 Release CLR 4.0.30319.34014
Copyright ©2014 Inner Drive Technology. All rights reserved. Portions Copyright ©1986-2014 David Braverman.

Find weather

Site navigation


Skip Navigation Links

Place info

Page info

PayPal - The safer, easier way to pay online!

Return home.

Copyright ©2014 Inner Drive Technology. Purveyors of fine, hand-crafted computer software. Page printed 2014-07-29T20:52:08 UTC.